createdAt,value
2019-02-10T00:01:55.722Z,6.60
2019-02-10T00:04:24.974Z,6.60
2019-02-10T00:06:54.145Z,6.60
2019-02-10T00:09:23.366Z,6.60
2019-02-10T00:11:52.613Z,6.60
2019-02-10T00:14:21.755Z,6.60
2019-02-10T00:16:50.905Z,6.60
2019-02-10T00:19:20.098Z,6.60
2019-02-10T00:21:49.253Z,6.60
2019-02-10T00:24:18.462Z,6.60
2019-02-10T00:26:47.718Z,6.60
2019-02-10T00:29:16.849Z,6.50
2019-02-10T00:31:46.009Z,6.50
2019-02-10T00:34:15.201Z,6.60
2019-02-10T00:36:44.335Z,6.50
2019-02-10T00:39:13.482Z,6.50
2019-02-10T00:41:42.670Z,6.50
2019-02-10T00:44:11.913Z,6.50
2019-02-10T00:46:41.056Z,6.50
2019-02-10T00:49:10.198Z,6.50
2019-02-10T00:51:39.421Z,6.50
2019-02-10T00:54:08.633Z,6.50
2019-02-10T00:56:37.782Z,6.50
2019-02-10T00:59:06.902Z,6.40
2019-02-10T01:01:36.049Z,6.40
2019-02-10T01:04:05.265Z,6.40
2019-02-10T01:06:41.270Z,6.40
2019-02-10T01:09:07.579Z,6.40
2019-02-10T01:11:36.713Z,6.40
2019-02-10T01:14:05.918Z,6.40
2019-02-10T01:16:35.066Z,6.40
2019-02-10T01:19:09.416Z,6.30
2019-02-10T01:21:40.106Z,6.40
2019-02-10T01:24:09.346Z,6.30
2019-02-10T01:26:38.578Z,6.30
2019-02-10T01:29:07.918Z,6.30
2019-02-10T01:31:37.168Z,6.30
2019-02-10T01:34:06.293Z,6.20
2019-02-10T01:36:35.473Z,6.20
2019-02-10T01:39:08.603Z,6.20
2019-02-10T01:41:37.822Z,6.20
2019-02-10T01:44:07.074Z,6.20
2019-02-10T01:46:36.341Z,6.10
2019-02-10T01:49:05.687Z,6.10
2019-02-10T01:51:34.838Z,6.10
2019-02-10T01:54:03.989Z,6.10
2019-02-10T01:56:33.115Z,6.00
2019-02-10T01:59:02.334Z,6.00
2019-02-10T02:01:31.534Z,6.00
2019-02-10T02:04:00.758Z,6.00
2019-02-10T02:06:29.949Z,5.90
2019-02-10T02:08:59.241Z,5.90
2019-02-10T02:11:28.459Z,5.90
2019-02-10T02:13:57.699Z,5.90
2019-02-10T02:16:26.846Z,5.80
2019-02-10T02:18:56.102Z,5.90
2019-02-10T02:21:25.270Z,5.80
2019-02-10T02:23:54.469Z,5.80
2019-02-10T02:26:23.594Z,5.80
2019-02-10T02:28:52.734Z,5.80
2019-02-10T02:31:22.109Z,5.80
2019-02-10T02:33:51.272Z,5.80
2019-02-10T02:36:20.513Z,5.80
2019-02-10T02:38:49.740Z,5.80
2019-02-10T02:41:18.867Z,5.70
2019-02-10T02:43:48.050Z,5.70
2019-02-10T02:46:17.242Z,5.70
2019-02-10T02:48:46.377Z,5.70
2019-02-10T02:51:15.518Z,5.70
2019-02-10T02:53:44.662Z,5.70
2019-02-10T02:56:13.867Z,5.70
2019-02-10T02:58:43.074Z,5.60
2019-02-10T03:01:12.241Z,5.60
2019-02-10T03:03:41.411Z,5.50
2019-02-10T03:06:10.574Z,5.50
2019-02-10T03:08:39.717Z,5.50
2019-02-10T03:11:08.836Z,5.40
2019-02-10T03:13:38.023Z,5.40
2019-02-10T03:16:07.245Z,5.30
2019-02-10T03:18:36.481Z,5.30
2019-02-10T03:21:05.746Z,5.30
2019-02-10T03:23:34.930Z,5.30
2019-02-10T03:26:04.059Z,5.20
2019-02-10T03:28:33.246Z,5.20
2019-02-10T03:31:02.383Z,5.20
2019-02-10T03:33:31.587Z,5.10
2019-02-10T03:36:00.812Z,5.10
2019-02-10T03:38:29.978Z,5.10
2019-02-10T03:40:59.122Z,5.10
2019-02-10T03:43:28.430Z,5.10
2019-02-10T03:45:57.698Z,5.10
2019-02-10T03:48:26.893Z,5.10
2019-02-10T03:50:56.141Z,5.10
2019-02-10T03:53:25.299Z,5.10
2019-02-10T03:55:54.418Z,5.00
2019-02-10T03:58:23.634Z,5.00
2019-02-10T04:00:52.837Z,5.00
2019-02-10T04:03:21.986Z,5.00
2019-02-10T04:05:51.166Z,5.10
2019-02-10T04:08:20.373Z,5.00
2019-02-10T04:10:49.526Z,5.00
2019-02-10T04:13:18.695Z,5.00
2019-02-10T04:15:47.822Z,5.10
2019-02-10T04:18:17.218Z,5.10
2019-02-10T04:20:46.390Z,5.10
2019-02-10T04:23:15.530Z,5.10
2019-02-10T04:25:44.675Z,5.10
2019-02-10T04:28:13.903Z,5.00
2019-02-10T04:30:43.269Z,5.00
2019-02-10T04:33:12.479Z,5.10
2019-02-10T04:35:41.695Z,5.10
2019-02-10T04:38:10.945Z,5.10
2019-02-10T04:40:40.082Z,5.20
2019-02-10T04:43:09.369Z,5.20
2019-02-10T04:45:38.590Z,5.20
2019-02-10T04:48:07.808Z,5.20
2019-02-10T04:50:37.079Z,5.20
2019-02-10T04:53:06.245Z,5.20
2019-02-10T04:55:35.445Z,5.20
2019-02-10T04:58:04.590Z,5.20
2019-02-10T05:00:33.790Z,5.20
2019-02-10T05:03:02.990Z,5.20
2019-02-10T05:05:32.117Z,5.20
2019-02-10T05:08:01.303Z,5.20
2019-02-10T05:10:30.524Z,5.20
2019-02-10T05:12:59.797Z,5.20
2019-02-10T05:15:29.019Z,5.20
2019-02-10T05:17:58.156Z,5.20
2019-02-10T05:20:27.371Z,5.20
2019-02-10T05:22:56.524Z,5.20
2019-02-10T05:25:25.775Z,5.20
2019-02-10T05:27:54.966Z,5.20
2019-02-10T05:30:24.118Z,5.20
2019-02-10T05:32:53.354Z,5.20
2019-02-10T05:35:22.597Z,5.10
2019-02-10T05:37:51.759Z,5.10
2019-02-10T05:40:20.894Z,5.10
2019-02-10T05:42:50.082Z,5.10
2019-02-10T05:45:19.247Z,5.10
2019-02-10T05:47:48.407Z,5.10
2019-02-10T05:50:17.553Z,5.20
2019-02-10T05:52:46.704Z,5.20
2019-02-10T05:55:15.863Z,5.20
2019-02-10T05:57:45.132Z,5.20
2019-02-10T06:00:14.638Z,5.20
2019-02-10T06:02:43.801Z,5.20
2019-02-10T06:05:16.170Z,5.20
2019-02-10T06:07:45.317Z,5.20
2019-02-10T06:10:14.654Z,5.20
2019-02-10T06:12:43.810Z,5.20
2019-02-10T06:15:13.027Z,5.20
2019-02-10T06:17:42.167Z,5.30
2019-02-10T06:20:11.421Z,5.30
2019-02-10T06:22:40.589Z,5.40
2019-02-10T06:25:09.740Z,5.40
2019-02-10T06:27:38.905Z,5.50
2019-02-10T06:30:08.969Z,5.40
2019-02-10T06:32:38.226Z,5.40
2019-02-10T06:35:08.515Z,5.40
2019-02-10T06:37:37.649Z,5.40
2019-02-10T06:40:08.939Z,5.50
2019-02-10T06:42:38.153Z,5.60
2019-02-10T06:45:09.454Z,5.60
2019-02-10T06:47:38.617Z,5.70
2019-02-10T06:50:08.925Z,5.80
2019-02-10T06:52:38.957Z,5.80
2019-02-10T06:55:10.505Z,5.80
2019-02-10T06:57:39.639Z,5.90
2019-02-10T07:00:42.452Z,5.90
2019-02-10T07:04:03.439Z,5.90
2019-02-10T07:06:32.699Z,6.00
2019-02-10T07:09:01.830Z,6.00
2019-02-10T07:11:30.977Z,6.10
2019-02-10T07:14:01.695Z,6.10
2019-02-10T07:16:45.660Z,6.20
2019-02-10T07:19:51.668Z,6.20
2019-02-10T07:22:55.918Z,6.30
2019-02-10T07:25:44.961Z,6.40
2019-02-10T07:28:43.062Z,6.30
2019-02-10T07:31:12.614Z,6.40
2019-02-10T07:34:12.058Z,6.40
2019-02-10T07:37:00.138Z,6.40
2019-02-10T07:39:44.374Z,6.40
2019-02-10T07:42:54.606Z,6.40
2019-02-10T07:46:09.364Z,6.50
2019-02-10T07:48:49.861Z,6.50
2019-02-10T07:51:43.441Z,6.60
2019-02-10T07:54:42.430Z,6.70
2019-02-10T07:57:47.978Z,6.70
2019-02-10T08:00:43.509Z,6.70
2019-02-10T08:03:37.169Z,6.80
2019-02-10T08:06:36.813Z,6.80
2019-02-10T08:09:45.906Z,6.80
2019-02-10T08:12:58.229Z,6.90
2019-02-10T08:15:52.354Z,6.90
2019-02-10T08:18:39.402Z,6.90
2019-02-10T08:21:28.436Z,7.00
2019-02-10T08:24:31.922Z,7.10
2019-02-10T08:27:32.931Z,7.20
2019-02-10T08:30:58.169Z,7.20
2019-02-10T08:33:38.410Z,7.30
2019-02-10T08:36:31.569Z,7.30
2019-02-10T08:39:27.090Z,7.40
2019-02-10T08:42:19.710Z,7.40
2019-02-10T08:45:23.985Z,7.50
2019-02-10T08:48:39.610Z,7.50
2019-02-10T08:52:10.999Z,7.50
2019-02-10T08:54:40.202Z,7.50
2019-02-10T08:57:09.362Z,7.60
2019-02-10T08:59:38.665Z,7.60
2019-02-10T09:02:07.809Z,7.70
2019-02-10T09:04:36.990Z,7.70
2019-02-10T09:07:06.149Z,7.90
2019-02-10T09:09:35.293Z,7.90
2019-02-10T09:12:04.493Z,7.90
2019-02-10T09:14:33.641Z,8.00
2019-02-10T09:17:02.865Z,8.00
2019-02-10T09:19:32.053Z,8.10
2019-02-10T09:22:01.194Z,8.20
2019-02-10T09:24:30.321Z,8.20
2019-02-10T09:26:59.474Z,8.40
2019-02-10T09:29:28.601Z,8.40
2019-02-10T09:31:57.757Z,8.50
2019-02-10T09:34:26.913Z,8.50
2019-02-10T09:36:56.113Z,8.50
2019-02-10T09:39:25.321Z,8.60
2019-02-10T09:41:54.505Z,8.60
2019-02-10T09:44:23.649Z,8.70
2019-02-10T09:46:52.794Z,8.80
2019-02-10T09:49:22.049Z,8.90
2019-02-10T09:51:51.202Z,8.90
2019-02-10T09:54:20.358Z,9.00
2019-02-10T09:56:49.497Z,9.00
2019-02-10T09:59:18.642Z,9.10
2019-02-10T10:01:47.850Z,9.10
2019-02-10T10:04:16.989Z,9.20
2019-02-10T10:06:46.133Z,9.20
2019-02-10T10:09:19.331Z,9.20
2019-02-10T10:11:46.200Z,9.30
2019-02-10T10:14:15.350Z,9.30
2019-02-10T10:16:44.493Z,9.40
2019-02-10T10:19:13.645Z,9.40
2019-02-10T10:21:42.850Z,9.40
2019-02-10T10:24:12.005Z,9.40
2019-02-10T10:26:41.166Z,9.50
2019-02-10T10:29:12.457Z,9.60
2019-02-10T10:31:41.714Z,9.60
2019-02-10T10:34:10.914Z,9.60
2019-02-10T10:36:40.129Z,9.60
2019-02-10T10:39:09.278Z,9.70
2019-02-10T10:41:38.425Z,9.70
2019-02-10T10:44:07.621Z,9.80
2019-02-10T10:46:36.793Z,9.80
2019-02-10T10:49:05.995Z,9.90
2019-02-10T10:51:35.162Z,9.90
2019-02-10T10:54:04.390Z,10.00
2019-02-10T10:56:33.522Z,10.00
2019-02-10T10:59:02.810Z,10.10
2019-02-10T11:01:31.953Z,10.10
2019-02-10T11:04:01.162Z,10.10
2019-02-10T11:06:30.325Z,10.20
2019-02-10T11:08:59.610Z,10.20
2019-02-10T11:11:28.806Z,10.30
2019-02-10T11:13:57.991Z,10.40
2019-02-10T11:16:27.162Z,10.50
2019-02-10T11:18:56.338Z,10.70
2019-02-10T11:21:25.554Z,10.80
2019-02-10T11:23:54.730Z,10.80
2019-02-10T11:26:23.978Z,10.90
2019-02-10T11:28:53.132Z,10.90
2019-02-10T11:31:22.310Z,10.90
2019-02-10T11:33:51.466Z,11.00
2019-02-10T11:36:20.670Z,10.90
2019-02-10T11:38:49.924Z,10.90
2019-02-10T11:41:19.167Z,10.90
2019-02-10T11:43:48.353Z,10.90
2019-02-10T11:46:17.531Z,10.80
2019-02-10T11:48:46.777Z,10.80
2019-02-10T11:51:16.010Z,10.70
2019-02-10T11:53:46.799Z,10.80
2019-02-10T11:56:16.099Z,10.70
2019-02-10T11:58:45.389Z,10.70
2019-02-10T12:01:14.522Z,10.70
2019-02-10T12:03:43.652Z,10.70
2019-02-10T12:06:12.818Z,10.70
2019-02-10T12:08:42.066Z,10.80
2019-02-10T12:11:11.209Z,10.70
2019-02-10T12:13:40.488Z,10.80
2019-02-10T12:16:10.010Z,10.80
2019-02-10T12:18:39.249Z,10.70
2019-02-10T12:21:08.414Z,10.70
2019-02-10T12:23:37.622Z,10.70
2019-02-10T12:26:06.794Z,10.80
2019-02-10T12:28:35.957Z,10.80
2019-02-10T12:31:05.094Z,10.80
2019-02-10T12:33:34.277Z,11.00
2019-02-10T12:36:03.415Z,11.00
2019-02-10T12:38:32.554Z,11.10
2019-02-10T12:41:01.794Z,11.10
2019-02-10T12:43:30.987Z,11.00
2019-02-10T12:46:00.141Z,11.10
2019-02-10T12:48:29.302Z,11.10
2019-02-10T12:50:58.482Z,11.00
2019-02-10T12:53:27.717Z,10.90
2019-02-10T12:55:56.993Z,10.90
2019-02-10T12:58:26.145Z,10.80
2019-02-10T13:00:55.290Z,10.80
2019-02-10T13:03:24.482Z,10.80
2019-02-10T13:05:53.671Z,10.80
2019-02-10T13:08:22.839Z,10.80
2019-02-10T13:10:52.005Z,10.90
2019-02-10T13:13:21.270Z,11.00
2019-02-10T13:15:50.481Z,10.90
2019-02-10T13:18:19.642Z,11.00
2019-02-10T13:20:48.849Z,11.00
2019-02-10T13:23:17.998Z,11.10
2019-02-10T13:25:47.165Z,11.10
2019-02-10T13:28:16.382Z,11.10
2019-02-10T13:30:45.653Z,11.20
2019-02-10T13:33:14.847Z,11.30
2019-02-10T13:35:44.051Z,11.30
2019-02-10T13:38:13.205Z,11.30
2019-02-10T13:40:42.494Z,11.30
2019-02-10T13:43:11.645Z,11.30
2019-02-10T13:45:40.803Z,11.20
2019-02-10T13:48:09.985Z,11.20
2019-02-10T13:50:39.117Z,11.20
2019-02-10T13:53:09.144Z,11.20
2019-02-10T13:55:38.470Z,11.30
2019-02-10T13:58:07.722Z,11.20
2019-02-10T14:00:36.875Z,11.20
2019-02-10T14:03:06.041Z,11.20
2019-02-10T14:05:35.198Z,11.10
2019-02-10T14:08:04.442Z,11.00
2019-02-10T14:10:33.621Z,11.00
2019-02-10T14:13:02.989Z,11.00
2019-02-10T14:15:32.293Z,10.90
2019-02-10T14:18:01.421Z,10.80
2019-02-10T14:20:30.622Z,10.70
2019-02-10T14:22:59.826Z,10.60
2019-02-10T14:25:28.962Z,10.60
2019-02-10T14:27:58.154Z,10.40
2019-02-10T14:30:27.315Z,10.30
2019-02-10T14:32:56.485Z,10.30
2019-02-10T14:35:25.786Z,10.40
2019-02-10T14:37:54.931Z,10.30
2019-02-10T14:40:24.142Z,10.30
2019-02-10T14:42:53.326Z,10.30
2019-02-10T14:45:22.566Z,10.30
2019-02-10T14:47:52.019Z,10.20
2019-02-10T14:50:21.190Z,10.00
2019-02-10T14:52:50.411Z,10.00
2019-02-10T14:55:19.685Z,10.00
2019-02-10T14:57:48.988Z,10.00
2019-02-10T15:00:18.206Z,9.90
2019-02-10T15:02:47.361Z,9.90
2019-02-10T15:05:16.655Z,9.90
2019-02-10T15:07:45.814Z,9.90
2019-02-10T15:10:14.987Z,9.90
2019-02-10T15:12:44.173Z,9.80
2019-02-10T15:15:13.393Z,9.70
2019-02-10T15:17:42.602Z,9.70
2019-02-10T15:20:11.788Z,9.70
2019-02-10T15:22:41.010Z,9.70
2019-02-10T15:25:10.423Z,9.60
2019-02-10T15:27:39.581Z,9.60
2019-02-10T15:30:10.294Z,9.50
2019-02-10T15:32:39.537Z,9.50
2019-02-10T15:35:08.794Z,9.50
2019-02-10T15:37:37.946Z,9.40
2019-02-10T15:40:07.370Z,9.30
2019-02-10T15:42:36.618Z,9.30
2019-02-10T15:45:06.517Z,9.30
2019-02-10T15:47:35.658Z,9.30
2019-02-10T15:50:05.386Z,9.30
2019-02-10T15:52:34.673Z,9.30
2019-02-10T15:55:03.942Z,9.20
2019-02-10T15:57:33.162Z,9.20
2019-02-10T16:00:02.302Z,9.20
2019-02-10T16:02:31.455Z,9.10
2019-02-10T16:05:00.610Z,9.10
2019-02-10T16:07:29.782Z,9.10
2019-02-10T16:09:58.950Z,9.10
2019-02-10T16:12:28.169Z,9.10
2019-02-10T16:14:57.298Z,9.10
2019-02-10T16:17:26.545Z,9.00
2019-02-10T16:19:55.704Z,9.00
2019-02-10T16:22:24.838Z,9.10
2019-02-10T16:24:53.985Z,9.10
2019-02-10T16:27:23.129Z,9.10
2019-02-10T16:29:52.294Z,9.00
2019-02-10T16:32:21.438Z,9.00
2019-02-10T16:34:50.610Z,8.90
2019-02-10T16:37:19.758Z,9.00
2019-02-10T16:39:48.983Z,8.90
2019-02-10T16:42:18.145Z,8.90
2019-02-10T16:44:47.305Z,8.90
2019-02-10T16:47:16.494Z,9.00
2019-02-10T16:49:45.644Z,9.00
2019-02-10T16:52:15.019Z,8.90
2019-02-10T16:54:44.190Z,8.90
2019-02-10T16:57:13.354Z,9.00
2019-02-10T16:59:42.482Z,9.00
2019-02-10T17:02:11.715Z,9.00
2019-02-10T17:04:40.857Z,8.90
2019-02-10T17:07:10.049Z,8.90
2019-02-10T17:09:39.190Z,8.80
2019-02-10T17:12:08.342Z,8.70
2019-02-10T17:14:37.533Z,8.70
2019-02-10T17:17:06.701Z,8.70
2019-02-10T17:19:35.894Z,8.60
2019-02-10T17:22:05.058Z,8.60
2019-02-10T17:24:34.303Z,8.60
2019-02-10T17:27:03.489Z,8.60
2019-02-10T17:29:32.789Z,8.60
2019-02-10T17:32:01.956Z,8.60
2019-02-10T17:34:31.226Z,8.60
2019-02-10T17:37:00.383Z,8.60
2019-02-10T17:39:29.530Z,8.60
2019-02-10T17:41:58.713Z,8.50
2019-02-10T17:44:27.846Z,8.40
2019-02-10T17:46:56.986Z,8.40
2019-02-10T17:49:26.172Z,8.40
2019-02-10T17:51:55.383Z,8.30
2019-02-10T17:54:25.065Z,8.30
2019-02-10T17:57:04.627Z,8.30
2019-02-10T17:59:33.822Z,8.30
2019-02-10T18:02:03.062Z,8.30
2019-02-10T18:04:37.389Z,8.30
2019-02-10T18:07:03.066Z,8.20
2019-02-10T18:09:32.307Z,8.20
2019-02-10T18:12:01.606Z,8.20
2019-02-10T18:15:01.461Z,8.30
2019-02-10T18:17:48.509Z,8.20
2019-02-10T18:20:36.720Z,8.20
2019-02-10T18:23:27.977Z,8.10
2019-02-10T18:26:15.241Z,8.10
2019-02-10T18:29:06.540Z,8.10
2019-02-10T18:31:53.746Z,8.10
2019-02-10T18:34:32.778Z,8.10
2019-02-10T18:37:27.100Z,8.10
2019-02-10T18:40:04.482Z,8.10
2019-02-10T18:42:52.937Z,8.00
2019-02-10T18:45:44.241Z,8.00
2019-02-10T18:48:44.873Z,8.00
2019-02-10T18:51:42.145Z,8.00
2019-02-10T18:54:24.791Z,8.00
2019-02-10T18:57:22.031Z,8.00
2019-02-10T19:00:07.705Z,8.00
2019-02-10T19:03:08.190Z,8.00
2019-02-10T19:05:59.574Z,8.10
2019-02-10T19:08:33.306Z,8.10
2019-02-10T19:11:20.316Z,8.10
2019-02-10T19:14:05.610Z,8.10
2019-02-10T19:16:55.850Z,8.10
2019-02-10T19:19:46.384Z,8.10
2019-02-10T19:22:33.650Z,8.10
2019-02-10T19:25:28.133Z,8.10
2019-02-10T19:28:11.000Z,8.10
2019-02-10T19:30:51.863Z,8.10
2019-02-10T19:33:46.111Z,8.10
2019-02-10T19:36:37.149Z,8.10
2019-02-10T19:39:21.581Z,8.10
2019-02-10T19:42:09.858Z,8.10
2019-02-10T19:44:54.129Z,8.10
2019-02-10T19:47:30.314Z,8.10
2019-02-10T19:50:08.913Z,8.10
2019-02-10T19:53:06.415Z,8.10
2019-02-10T19:55:45.235Z,8.10
2019-02-10T19:58:33.208Z,8.10
2019-02-10T20:01:21.414Z,8.20
2019-02-10T20:04:08.534Z,8.10
2019-02-10T20:06:56.882Z,8.20
2019-02-10T20:09:57.329Z,8.10
2019-02-10T20:12:35.522Z,8.10
2019-02-10T20:15:23.858Z,8.10
2019-02-10T20:18:10.646Z,8.00
2019-02-10T20:20:59.225Z,8.10
2019-02-10T20:23:47.214Z,8.10
2019-02-10T20:26:41.750Z,8.10
2019-02-10T20:29:29.148Z,8.10
2019-02-10T20:32:16.494Z,8.10
2019-02-10T20:35:20.342Z,8.10
2019-02-10T20:38:01.140Z,8.10
2019-02-10T20:40:49.381Z,8.10
2019-02-10T20:43:25.980Z,8.20
2019-02-10T20:46:17.551Z,8.20
2019-02-10T20:49:12.228Z,8.20
2019-02-10T20:51:57.871Z,8.20
2019-02-10T20:54:38.242Z,8.20
2019-02-10T20:57:24.114Z,8.20
2019-02-10T21:00:05.532Z,8.20
2019-02-10T21:02:49.226Z,8.20
2019-02-10T21:05:33.934Z,8.30
2019-02-10T21:08:15.430Z,8.30
2019-02-10T21:11:09.600Z,8.40
2019-02-10T21:14:09.882Z,8.40
2019-02-10T21:16:54.566Z,8.40
2019-02-10T21:19:41.646Z,8.40
2019-02-10T21:22:28.233Z,8.50
2019-02-10T21:25:31.850Z,8.50
2019-02-10T21:28:22.922Z,8.50
2019-02-10T21:31:09.973Z,8.50
2019-02-10T21:33:54.325Z,8.50
2019-02-10T21:36:32.000Z,8.50
2019-02-10T21:39:20.213Z,8.50
2019-02-10T21:41:57.640Z,8.50
2019-02-10T21:44:48.630Z,8.50
2019-02-10T21:47:42.677Z,8.40
2019-02-10T21:50:11.936Z,8.40
2019-02-10T21:52:41.102Z,8.40
2019-02-10T21:55:10.358Z,8.40
2019-02-10T21:57:39.566Z,8.50
2019-02-10T22:00:11.106Z,8.50
2019-02-10T22:02:40.237Z,8.50
2019-02-10T22:05:09.382Z,8.50
2019-02-10T22:07:38.573Z,8.40
2019-02-10T22:10:09.562Z,8.50
2019-02-10T22:12:39.734Z,8.40
2019-02-10T22:15:09.607Z,8.40
2019-02-10T22:17:38.757Z,8.40
2019-02-10T22:20:12.242Z,8.40
2019-02-10T22:22:41.382Z,8.40
2019-02-10T22:25:10.824Z,8.40
2019-02-10T22:27:40.117Z,8.40
2019-02-10T22:30:12.689Z,8.30
2019-02-10T22:32:41.830Z,8.30
2019-02-10T22:35:11.010Z,8.30
2019-02-10T22:37:40.194Z,8.30
2019-02-10T22:40:09.722Z,8.20
2019-02-10T22:42:45.465Z,8.20
2019-02-10T22:45:10.567Z,8.20
2019-02-10T22:47:39.734Z,8.20
2019-02-10T22:50:11.169Z,8.20
2019-02-10T22:52:40.404Z,8.20
2019-02-10T22:55:09.643Z,8.20
2019-02-10T22:57:38.819Z,8.20
2019-02-10T23:00:51.637Z,8.20
2019-02-10T23:03:20.942Z,8.20
2019-02-10T23:05:50.164Z,8.30
2019-02-10T23:08:19.417Z,8.30
2019-02-10T23:10:48.593Z,8.30
2019-02-10T23:13:17.721Z,8.20
2019-02-10T23:15:46.902Z,8.20
2019-02-10T23:18:16.150Z,8.10
2019-02-10T23:20:45.280Z,8.10
2019-02-10T23:23:14.463Z,8.10
2019-02-10T23:25:43.600Z,8.00
2019-02-10T23:28:12.737Z,8.00
2019-02-10T23:30:41.967Z,8.00
2019-02-10T23:33:11.096Z,8.00
2019-02-10T23:35:40.270Z,8.00
2019-02-10T23:38:09.409Z,7.90
2019-02-10T23:40:38.683Z,7.90
2019-02-10T23:43:07.854Z,7.90
2019-02-10T23:45:37.003Z,7.90
2019-02-10T23:48:06.225Z,7.90
2019-02-10T23:50:35.394Z,7.90
2019-02-10T23:53:04.966Z,7.90
2019-02-10T23:55:34.117Z,7.90
2019-02-10T23:58:03.294Z,7.90
